sensor_id;sensor_type;location;lat;lon;timestamp;temperature;humidity
24164;DHT22;12319;49.204;8.116;2023-07-22T00:01:51;17.90;61.00
24164;DHT22;12319;49.204;8.116;2023-07-22T00:04:16;18.00;61.10
24164;DHT22;12319;49.204;8.116;2023-07-22T00:06:42;18.00;61.00
24164;DHT22;12319;49.204;8.116;2023-07-22T00:09:07;18.00;61.10
24164;DHT22;12319;49.204;8.116;2023-07-22T00:11:35;18.00;61.10
24164;DHT22;12319;49.204;8.116;2023-07-22T00:14:01;18.00;61.00
24164;DHT22;12319;49.204;8.116;2023-07-22T00:16:26;18.00;61.20
24164;DHT22;12319;49.204;8.116;2023-07-22T00:18:54;18.00;61.20
24164;DHT22;12319;49.204;8.116;2023-07-22T00:21:20;18.00;61.20
24164;DHT22;12319;49.204;8.116;2023-07-22T00:23:45;18.00;61.20
24164;DHT22;12319;49.204;8.116;2023-07-22T00:26:11;18.10;61.30
24164;DHT22;12319;49.204;8.116;2023-07-22T00:28:37;18.10;61.30
24164;DHT22;12319;49.204;8.116;2023-07-22T00:31:03;18.10;61.30
24164;DHT22;12319;49.204;8.116;2023-07-22T00:33:28;18.10;61.30
24164;DHT22;12319;49.204;8.116;2023-07-22T00:35:54;18.10;61.30
24164;DHT22;12319;49.204;8.116;2023-07-22T00:38:20;18.10;61.30
24164;DHT22;12319;49.204;8.116;2023-07-22T00:40:46;18.10;61.30
24164;DHT22;12319;49.204;8.116;2023-07-22T00:43:12;17.60;60.80
24164;DHT22;12319;49.204;8.116;2023-07-22T00:45:37;18.10;61.30
24164;DHT22;12319;49.204;8.116;2023-07-22T00:48:05;18.10;61.40
24164;DHT22;12319;49.204;8.116;2023-07-22T00:50:31;18.10;61.50
24164;DHT22;12319;49.204;8.116;2023-07-22T00:52:58;18.10;61.50
24164;DHT22;12319;49.204;8.116;2023-07-22T00:55:23;18.20;61.70
24164;DHT22;12319;49.204;8.116;2023-07-22T00:57:50;18.10;61.70
24164;DHT22;12319;49.204;8.116;2023-07-22T01:00:15;18.20;61.80
24164;DHT22;12319;49.204;8.116;2023-07-22T01:02:42;18.10;61.80
24164;DHT22;12319;49.204;8.116;2023-07-22T01:05:10;18.20;61.80
24164;DHT22;12319;49.204;8.116;2023-07-22T01:07:36;18.20;61.90
24164;DHT22;12319;49.204;8.116;2023-07-22T01:10:04;18.20;62.00
24164;DHT22;12319;49.204;8.116;2023-07-22T01:12:31;18.10;62.20
24164;DHT22;12319;49.204;8.116;2023-07-22T01:14:56;18.10;62.10
24164;DHT22;12319;49.204;8.116;2023-07-22T01:17:22;18.10;62.10
24164;DHT22;12319;49.204;8.116;2023-07-22T01:19:48;18.10;62.10
24164;DHT22;12319;49.204;8.116;2023-07-22T01:22:15;18.20;62.20
24164;DHT22;12319;49.204;8.116;2023-07-22T01:24:41;18.20;62.30
24164;DHT22;12319;49.204;8.116;2023-07-22T01:27:08;18.20;62.30
24164;DHT22;12319;49.204;8.116;2023-07-22T01:29:35;18.20;62.30
24164;DHT22;12319;49.204;8.116;2023-07-22T01:32:02;18.20;62.20
24164;DHT22;12319;49.204;8.116;2023-07-22T01:34:27;18.20;62.30
24164;DHT22;12319;49.204;8.116;2023-07-22T01:36:53;18.20;62.30
24164;DHT22;12319;49.204;8.116;2023-07-22T01:39:19;18.20;62.30
24164;DHT22;12319;49.204;8.116;2023-07-22T01:41:45;18.20;62.30
24164;DHT22;12319;49.204;8.116;2023-07-22T01:44:11;18.20;62.30
24164;DHT22;12319;49.204;8.116;2023-07-22T01:46:37;18.20;62.40
24164;DHT22;12319;49.204;8.116;2023-07-22T01:49:06;18.20;62.40
24164;DHT22;12319;49.204;8.116;2023-07-22T01:51:33;18.20;62.50
24164;DHT22;12319;49.204;8.116;2023-07-22T01:53:59;18.20;62.40
24164;DHT22;12319;49.204;8.116;2023-07-22T01:56:25;18.20;62.50
24164;DHT22;12319;49.204;8.116;2023-07-22T01:58:50;18.20;62.50
24164;DHT22;12319;49.204;8.116;2023-07-22T02:01:16;18.20;62.80
24164;DHT22;12319;49.204;8.116;2023-07-22T02:03:42;18.10;62.60
24164;DHT22;12319;49.204;8.116;2023-07-22T02:06:08;18.20;62.70
24164;DHT22;12319;49.204;8.116;2023-07-22T02:08:33;18.10;62.90
24164;DHT22;12319;49.204;8.116;2023-07-22T02:11:03;18.10;62.90
24164;DHT22;12319;49.204;8.116;2023-07-22T02:13:33;18.00;63.00
24164;DHT22;12319;49.204;8.116;2023-07-22T02:15:59;17.90;63.00
24164;DHT22;12319;49.204;8.116;2023-07-22T02:18:24;17.90;63.20
24164;DHT22;12319;49.204;8.116;2023-07-22T02:20:50;17.80;63.20
24164;DHT22;12319;49.204;8.116;2023-07-22T02:23:15;17.80;63.40
24164;DHT22;12319;49.204;8.116;2023-07-22T02:25:41;17.80;63.50
24164;DHT22;12319;49.204;8.116;2023-07-22T02:28:07;17.70;63.50
24164;DHT22;12319;49.204;8.116;2023-07-22T02:30:36;17.60;63.50
24164;DHT22;12319;49.204;8.116;2023-07-22T02:33:02;17.60;63.90
24164;DHT22;12319;49.204;8.116;2023-07-22T02:35:28;17.60;63.90
24164;DHT22;12319;49.204;8.116;2023-07-22T02:37:54;17.50;63.80
24164;DHT22;12319;49.204;8.116;2023-07-22T02:40:19;17.50;64.10
24164;DHT22;12319;49.204;8.116;2023-07-22T02:42:45;17.40;64.30
24164;DHT22;12319;49.204;8.116;2023-07-22T02:45:10;17.30;64.50
24164;DHT22;12319;49.204;8.116;2023-07-22T02:47:36;17.30;64.50
24164;DHT22;12319;49.204;8.116;2023-07-22T02:50:02;17.30;64.50
24164;DHT22;12319;49.204;8.116;2023-07-22T02:52:30;17.40;64.70
24164;DHT22;12319;49.204;8.116;2023-07-22T02:55:15;17.20;64.70
24164;DHT22;12319;49.204;8.116;2023-07-22T02:57:44;17.20;65.00
24164;DHT22;12319;49.204;8.116;2023-07-22T03:00:09;17.10;64.80
24164;DHT22;12319;49.204;8.116;2023-07-22T03:02:38;17.10;65.00
24164;DHT22;12319;49.204;8.116;2023-07-22T03:05:05;17.10;65.20
24164;DHT22;12319;49.204;8.116;2023-07-22T03:07:35;17.10;65.20
24164;DHT22;12319;49.204;8.116;2023-07-22T03:10:01;17.10;65.20
24164;DHT22;12319;49.204;8.116;2023-07-22T03:12:26;17.20;65.30
24164;DHT22;12319;49.204;8.116;2023-07-22T03:14:52;17.20;65.20
24164;DHT22;12319;49.204;8.116;2023-07-22T03:17:18;17.20;65.20
24164;DHT22;12319;49.204;8.116;2023-07-22T03:19:44;17.20;65.20
24164;DHT22;12319;49.204;8.116;2023-07-22T03:22:10;17.20;65.30
24164;DHT22;12319;49.204;8.116;2023-07-22T03:24:36;17.30;65.30
24164;DHT22;12319;49.204;8.116;2023-07-22T03:27:02;17.30;65.30
24164;DHT22;12319;49.204;8.116;2023-07-22T03:29:28;17.30;65.40
24164;DHT22;12319;49.204;8.116;2023-07-22T03:31:53;17.30;65.40
24164;DHT22;12319;49.204;8.116;2023-07-22T03:34:19;17.30;65.30
24164;DHT22;12319;49.204;8.116;2023-07-22T03:36:45;17.30;66.00
24164;DHT22;12319;49.204;8.116;2023-07-22T03:39:11;17.30;65.70
24164;DHT22;12319;49.204;8.116;2023-07-22T03:41:37;17.20;65.80
24164;DHT22;12319;49.204;8.116;2023-07-22T03:44:03;17.80;66.50
24164;DHT22;12319;49.204;8.116;2023-07-22T03:46:28;17.20;66.30
24164;DHT22;12319;49.204;8.116;2023-07-22T03:48:54;17.20;65.90
24164;DHT22;12319;49.204;8.116;2023-07-22T03:51:19;17.20;66.00
24164;DHT22;12319;49.204;8.116;2023-07-22T03:53:45;17.10;65.90
24164;DHT22;12319;49.204;8.116;2023-07-22T03:56:10;17.10;66.10
24164;DHT22;12319;49.204;8.116;2023-07-22T03:58:36;17.10;66.30
24164;DHT22;12319;49.204;8.116;2023-07-22T04:01:01;17.10;66.30
24164;DHT22;12319;49.204;8.116;2023-07-22T04:03:26;17.10;66.30
24164;DHT22;12319;49.204;8.116;2023-07-22T04:05:56;17.10;66.40
24164;DHT22;12319;49.204;8.116;2023-07-22T04:08:21;17.10;66.60
24164;DHT22;12319;49.204;8.116;2023-07-22T04:10:57;17.10;66.50
24164;DHT22;12319;49.204;8.116;2023-07-22T04:13:23;17.10;66.60
24164;DHT22;12319;49.204;8.116;2023-07-22T04:15:50;17.20;66.70
24164;DHT22;12319;49.204;8.116;2023-07-22T04:18:19;17.20;66.60
24164;DHT22;12319;49.204;8.116;2023-07-22T04:20:45;17.20;66.80
24164;DHT22;12319;49.204;8.116;2023-07-22T04:23:11;17.20;66.50
24164;DHT22;12319;49.204;8.116;2023-07-22T04:25:41;17.20;66.50
24164;DHT22;12319;49.204;8.116;2023-07-22T04:28:06;17.20;66.70
24164;DHT22;12319;49.204;8.116;2023-07-22T04:30:33;17.30;66.90
24164;DHT22;12319;49.204;8.116;2023-07-22T04:32:59;17.30;67.00
24164;DHT22;12319;49.204;8.116;2023-07-22T04:35:24;17.30;66.80
24164;DHT22;12319;49.204;8.116;2023-07-22T04:37:50;17.40;66.90
24164;DHT22;12319;49.204;8.116;2023-07-22T04:40:15;17.40;67.00
24164;DHT22;12319;49.204;8.116;2023-07-22T04:42:42;17.50;66.90
24164;DHT22;12319;49.204;8.116;2023-07-22T04:45:09;17.50;67.00
24164;DHT22;12319;49.204;8.116;2023-07-22T04:47:38;17.50;67.10
24164;DHT22;12319;49.204;8.116;2023-07-22T04:50:09;17.50;66.90
24164;DHT22;12319;49.204;8.116;2023-07-22T04:52:38;17.50;66.90
24164;DHT22;12319;49.204;8.116;2023-07-22T04:55:04;17.60;67.10
24164;DHT22;12319;49.204;8.116;2023-07-22T04:57:35;17.60;67.00
24164;DHT22;12319;49.204;8.116;2023-07-22T05:00:01;17.60;67.10
24164;DHT22;12319;49.204;8.116;2023-07-22T05:02:29;17.60;67.20
24164;DHT22;12319;49.204;8.116;2023-07-22T05:04:56;17.70;67.30
24164;DHT22;12319;49.204;8.116;2023-07-22T05:07:21;17.70;67.10
24164;DHT22;12319;49.204;8.116;2023-07-22T05:09:47;17.70;67.00
24164;DHT22;12319;49.204;8.116;2023-07-22T05:12:13;17.80;67.00
24164;DHT22;12319;49.204;8.116;2023-07-22T05:14:38;17.90;67.00
24164;DHT22;12319;49.204;8.116;2023-07-22T05:17:04;17.90;66.90
24164;DHT22;12319;49.204;8.116;2023-07-22T05:19:29;18.00;66.90
24164;DHT22;12319;49.204;8.116;2023-07-22T05:21:55;18.00;66.90
24164;DHT22;12319;49.204;8.116;2023-07-22T05:24:20;18.10;67.00
24164;DHT22;12319;49.204;8.116;2023-07-22T05:26:46;18.20;66.90
24164;DHT22;12319;49.204;8.116;2023-07-22T05:29:12;18.20;67.10
24164;DHT22;12319;49.204;8.116;2023-07-22T05:31:37;18.20;66.70
24164;DHT22;12319;49.204;8.116;2023-07-22T05:34:03;18.20;66.70
24164;DHT22;12319;49.204;8.116;2023-07-22T05:36:29;18.20;66.70
24164;DHT22;12319;49.204;8.116;2023-07-22T05:38:55;18.20;66.70
24164;DHT22;12319;49.204;8.116;2023-07-22T05:41:20;18.20;66.70
24164;DHT22;12319;49.204;8.116;2023-07-22T05:43:46;18.30;66.90
24164;DHT22;12319;49.204;8.116;2023-07-22T05:46:11;18.30;67.00
24164;DHT22;12319;49.204;8.116;2023-07-22T05:48:37;18.40;67.10
24164;DHT22;12319;49.204;8.116;2023-07-22T05:51:03;18.40;66.90
24164;DHT22;12319;49.204;8.116;2023-07-22T05:53:28;18.60;67.00
24164;DHT22;12319;49.204;8.116;2023-07-22T05:55:54;18.70;66.60
24164;DHT22;12319;49.204;8.116;2023-07-22T05:58:19;18.90;66.80
24164;DHT22;12319;49.204;8.116;2023-07-22T06:00:45;19.10;66.60
24164;DHT22;12319;49.204;8.116;2023-07-22T06:03:12;19.30;66.30
24164;DHT22;12319;49.204;8.116;2023-07-22T06:05:38;19.50;66.00
24164;DHT22;12319;49.204;8.116;2023-07-22T06:08:03;19.70;65.80
24164;DHT22;12319;49.204;8.116;2023-07-22T06:10:29;20.00;65.00
24164;DHT22;12319;49.204;8.116;2023-07-22T06:12:55;20.00;65.20
24164;DHT22;12319;49.204;8.116;2023-07-22T06:15:21;20.30;65.00
24164;DHT22;12319;49.204;8.116;2023-07-22T06:17:47;20.50;64.60
24164;DHT22;12319;49.204;8.116;2023-07-22T06:20:12;20.70;64.10
24164;DHT22;12319;49.204;8.116;2023-07-22T06:22:38;20.90;63.90
24164;DHT22;12319;49.204;8.116;2023-07-22T06:25:04;21.20;63.70
24164;DHT22;12319;49.204;8.116;2023-07-22T06:27:30;22.10;63.50
24164;DHT22;12319;49.204;8.116;2023-07-22T06:29:56;23.30;62.90
24164;DHT22;12319;49.204;8.116;2023-07-22T06:32:21;23.80;60.70
24164;DHT22;12319;49.204;8.116;2023-07-22T06:34:47;23.90;59.90
24164;DHT22;12319;49.204;8.116;2023-07-22T06:37:13;24.50;60.20
24164;DHT22;12319;49.204;8.116;2023-07-22T06:39:38;25.80;59.00
24164;DHT22;12319;49.204;8.116;2023-07-22T06:42:04;27.10;57.80
24164;DHT22;12319;49.204;8.116;2023-07-22T06:44:30;28.30;55.10
24164;DHT22;12319;49.204;8.116;2023-07-22T06:46:55;28.80;53.30
24164;DHT22;12319;49.204;8.116;2023-07-22T06:49:21;28.80;52.90
24164;DHT22;12319;49.204;8.116;2023-07-22T06:51:46;29.60;52.40
24164;DHT22;12319;49.204;8.116;2023-07-22T06:54:12;30.70;52.00
24164;DHT22;12319;49.204;8.116;2023-07-22T06:56:37;31.90;50.50
24164;DHT22;12319;49.204;8.116;2023-07-22T06:59:03;33.00;49.40
24164;DHT22;12319;49.204;8.116;2023-07-22T07:01:28;33.40;47.80
24164;DHT22;12319;49.204;8.116;2023-07-22T07:03:54;34.10;46.70
24164;DHT22;12319;49.204;8.116;2023-07-22T07:06:20;34.30;44.70
24164;DHT22;12319;49.204;8.116;2023-07-22T07:08:45;34.10;45.30
24164;DHT22;12319;49.204;8.116;2023-07-22T07:11:11;34.40;44.60
24164;DHT22;12319;49.204;8.116;2023-07-22T07:13:36;34.50;44.20
24164;DHT22;12319;49.204;8.116;2023-07-22T07:18:48;34.80;42.00
24164;DHT22;12319;49.204;8.116;2023-07-22T07:21:13;35.70;43.50
24164;DHT22;12319;49.204;8.116;2023-07-22T07:23:39;36.60;42.80
24164;DHT22;12319;49.204;8.116;2023-07-22T07:26:04;36.70;41.00
24164;DHT22;12319;49.204;8.116;2023-07-22T07:28:30;36.10;41.00
24164;DHT22;12319;49.204;8.116;2023-07-22T07:30:55;35.00;40.90
24164;DHT22;12319;49.204;8.116;2023-07-22T07:33:21;33.70;41.00
24164;DHT22;12319;49.204;8.116;2023-07-22T07:35:46;32.50;41.80
24164;DHT22;12319;49.204;8.116;2023-07-22T07:38:12;32.20;42.60
24164;DHT22;12319;49.204;8.116;2023-07-22T07:40:38;33.20;43.10
24164;DHT22;12319;49.204;8.116;2023-07-22T07:43:03;34.50;42.00
24164;DHT22;12319;49.204;8.116;2023-07-22T07:45:29;35.90;40.40
24164;DHT22;12319;49.204;8.116;2023-07-22T07:47:54;37.20;38.70
24164;DHT22;12319;49.204;8.116;2023-07-22T07:50:20;38.30;37.90
24164;DHT22;12319;49.204;8.116;2023-07-22T07:52:46;39.10;38.00
24164;DHT22;12319;49.204;8.116;2023-07-22T07:55:12;39.80;37.10
24164;DHT22;12319;49.204;8.116;2023-07-22T07:57:37;40.50;37.00
24164;DHT22;12319;49.204;8.116;2023-07-22T08:00:03;41.10;35.30
24164;DHT22;12319;49.204;8.116;2023-07-22T08:02:29;41.60;35.50
24164;DHT22;12319;49.204;8.116;2023-07-22T08:04:55;42.00;35.00
24164;DHT22;12319;49.204;8.116;2023-07-22T08:07:21;42.40;35.20
24164;DHT22;12319;49.204;8.116;2023-07-22T08:09:47;42.70;35.00
24164;DHT22;12319;49.204;8.116;2023-07-22T08:12:16;42.70;33.70
24164;DHT22;12319;49.204;8.116;2023-07-22T08:14:42;42.80;33.40
24164;DHT22;12319;49.204;8.116;2023-07-22T08:17:07;42.90;33.10
24164;DHT22;12319;49.204;8.116;2023-07-22T08:19:33;43.10;33.10
24164;DHT22;12319;49.204;8.116;2023-07-22T08:21:59;43.30;32.70
24164;DHT22;12319;49.204;8.116;2023-07-22T08:24:24;43.10;32.40
24164;DHT22;12319;49.204;8.116;2023-07-22T08:26:50;42.20;32.20
24164;DHT22;12319;49.204;8.116;2023-07-22T08:29:15;40.90;32.30
24164;DHT22;12319;49.204;8.116;2023-07-22T08:31:41;39.50;32.80
24164;DHT22;12319;49.204;8.116;2023-07-22T08:34:06;38.10;33.50
24164;DHT22;12319;49.204;8.116;2023-07-22T08:36:32;37.30;34.10
24164;DHT22;12319;49.204;8.116;2023-07-22T08:38:57;36.30;34.60
24164;DHT22;12319;49.204;8.116;2023-07-22T08:41:24;35.50;34.80
24164;DHT22;12319;49.204;8.116;2023-07-22T08:43:51;34.70;35.40
24164;DHT22;12319;49.204;8.116;2023-07-22T08:46:19;34.20;35.90
24164;DHT22;12319;49.204;8.116;2023-07-22T08:48:47;33.80;36.10
24164;DHT22;12319;49.204;8.116;2023-07-22T08:51:17;33.40;36.70
24164;DHT22;12319;49.204;8.116;2023-07-22T08:53:45;33.00;36.90
24164;DHT22;12319;49.204;8.116;2023-07-22T08:56:11;32.60;37.20
24164;DHT22;12319;49.204;8.116;2023-07-22T08:58:38;32.30;37.30
24164;DHT22;12319;49.204;8.116;2023-07-22T09:01:05;31.90;37.80
24164;DHT22;12319;49.204;8.116;2023-07-22T09:03:32;31.60;38.20
24164;DHT22;12319;49.204;8.116;2023-07-22T09:05:58;31.10;38.60
24164;DHT22;12319;49.204;8.116;2023-07-22T09:08:23;30.80;39.10
24164;DHT22;12319;49.204;8.116;2023-07-22T09:10:49;30.50;39.60
24164;DHT22;12319;49.204;8.116;2023-07-22T09:13:15;30.30;40.20
24164;DHT22;12319;49.204;8.116;2023-07-22T09:15:42;30.20;40.40
24164;DHT22;12319;49.204;8.116;2023-07-22T09:18:08;30.00;40.60
24164;DHT22;12319;49.204;8.116;2023-07-22T09:20:33;29.90;40.90
24164;DHT22;12319;49.204;8.116;2023-07-22T09:23:00;29.60;40.80
24164;DHT22;12319;49.204;8.116;2023-07-22T09:25:27;29.50;41.10
24164;DHT22;12319;49.204;8.116;2023-07-22T09:27:55;29.40;41.50
24164;DHT22;12319;49.204;8.116;2023-07-22T09:30:32;29.30;41.60
24164;DHT22;12319;49.204;8.116;2023-07-22T09:33:02;29.00;42.10
24164;DHT22;12319;49.204;8.116;2023-07-22T09:35:49;29.00;42.20
24164;DHT22;12319;49.204;8.116;2023-07-22T09:38:23;28.90;42.60
24164;DHT22;12319;49.204;8.116;2023-07-22T09:40:49;28.90;42.90
24164;DHT22;12319;49.204;8.116;2023-07-22T09:43:14;29.00;42.70
24164;DHT22;12319;49.204;8.116;2023-07-22T09:45:40;29.00;42.60
24164;DHT22;12319;49.204;8.116;2023-07-22T09:48:06;28.90;42.70
24164;DHT22;12319;49.204;8.116;2023-07-22T09:50:36;28.90;42.80
24164;DHT22;12319;49.204;8.116;2023-07-22T09:53:02;28.90;43.00
24164;DHT22;12319;49.204;8.116;2023-07-22T09:55:30;28.90;42.90
24164;DHT22;12319;49.204;8.116;2023-07-22T09:57:57;29.00;42.60
24164;DHT22;12319;49.204;8.116;2023-07-22T10:00:29;29.00;43.00
24164;DHT22;12319;49.204;8.116;2023-07-22T10:02:57;28.50;42.50
24164;DHT22;12319;49.204;8.116;2023-07-22T10:05:24;28.60;42.70
24164;DHT22;12319;49.204;8.116;2023-07-22T10:07:55;28.50;43.10
24164;DHT22;12319;49.204;8.116;2023-07-22T10:10:25;28.30;43.00
24164;DHT22;12319;49.204;8.116;2023-07-22T10:12:51;28.10;42.50
24164;DHT22;12319;49.204;8.116;2023-07-22T10:15:18;27.90;42.70
24164;DHT22;12319;49.204;8.116;2023-07-22T10:17:45;27.70;42.60
24164;DHT22;12319;49.204;8.116;2023-07-22T10:20:12;27.60;43.20
24164;DHT22;12319;49.204;8.116;2023-07-22T10:22:45;27.60;42.60
24164;DHT22;12319;49.204;8.116;2023-07-22T10:25:20;27.70;42.40
24164;DHT22;12319;49.204;8.116;2023-07-22T10:27:49;27.90;42.30
24164;DHT22;12319;49.204;8.116;2023-07-22T10:30:16;28.00;42.30
24164;DHT22;12319;49.204;8.116;2023-07-22T10:32:53;28.10;42.30
24164;DHT22;12319;49.204;8.116;2023-07-22T10:38:09;28.00;41.90
24164;DHT22;12319;49.204;8.116;2023-07-22T10:40:51;27.90;42.20
24164;DHT22;12319;49.204;8.116;2023-07-22T10:43:23;27.80;42.30
24164;DHT22;12319;49.204;8.116;2023-07-22T10:45:57;27.80;42.40
24164;DHT22;12319;49.204;8.116;2023-07-22T10:48:26;28.00;42.50
24164;DHT22;12319;49.204;8.116;2023-07-22T10:51:00;28.10;42.30
24164;DHT22;12319;49.204;8.116;2023-07-22T10:53:30;28.20;41.60
24164;DHT22;12319;49.204;8.116;2023-07-22T11:01:23;28.60;41.30
24164;DHT22;12319;49.204;8.116;2023-07-22T11:04:22;28.60;41.10
24164;DHT22;12319;49.204;8.116;2023-07-22T11:06:56;28.70;41.20
24164;DHT22;12319;49.204;8.116;2023-07-22T11:11:55;28.90;40.40
24164;DHT22;12319;49.204;8.116;2023-07-22T11:17:01;29.10;40.50
24164;DHT22;12319;49.204;8.116;2023-07-22T11:19:29;29.20;40.50
24164;DHT22;12319;49.204;8.116;2023-07-22T11:21:55;29.40;40.10
24164;DHT22;12319;49.204;8.116;2023-07-22T11:24:22;29.50;40.20
24164;DHT22;12319;49.204;8.116;2023-07-22T11:26:49;29.60;40.00
24164;DHT22;12319;49.204;8.116;2023-07-22T11:29:15;29.60;40.10
24164;DHT22;12319;49.204;8.116;2023-07-22T11:31:43;29.70;40.00
24164;DHT22;12319;49.204;8.116;2023-07-22T11:34:10;29.70;39.80
24164;DHT22;12319;49.204;8.116;2023-07-22T11:36:36;29.80;39.50
24164;DHT22;12319;49.204;8.116;2023-07-22T11:39:04;29.70;39.10
24164;DHT22;12319;49.204;8.116;2023-07-22T11:41:30;29.70;39.10
24164;DHT22;12319;49.204;8.116;2023-07-22T11:43:58;29.60;39.00
24164;DHT22;12319;49.204;8.116;2023-07-22T11:46:24;29.50;39.00
24164;DHT22;12319;49.204;8.116;2023-07-22T11:48:52;29.40;39.00
24164;DHT22;12319;49.204;8.116;2023-07-22T11:51:22;29.50;39.30
24164;DHT22;12319;49.204;8.116;2023-07-22T11:53:52;29.60;38.80
24164;DHT22;12319;49.204;8.116;2023-07-22T11:56:27;29.70;39.00
24164;DHT22;12319;49.204;8.116;2023-07-22T11:58:56;29.60;38.80
24164;DHT22;12319;49.204;8.116;2023-07-22T12:01:22;29.50;38.60
24164;DHT22;12319;49.204;8.116;2023-07-22T12:03:49;29.50;38.60
24164;DHT22;12319;49.204;8.116;2023-07-22T12:06:15;29.50;38.50
24164;DHT22;12319;49.204;8.116;2023-07-22T12:08:46;29.80;38.20
24164;DHT22;12319;49.204;8.116;2023-07-22T12:11:23;29.90;37.90
24164;DHT22;12319;49.204;8.116;2023-07-22T12:16:35;30.30;37.30
24164;DHT22;12319;49.204;8.116;2023-07-22T12:19:02;30.50;37.00
24164;DHT22;12319;49.204;8.116;2023-07-22T12:21:28;30.70;37.40
24164;DHT22;12319;49.204;8.116;2023-07-22T12:23:53;30.80;36.60
24164;DHT22;12319;49.204;8.116;2023-07-22T12:26:19;30.70;36.90
24164;DHT22;12319;49.204;8.116;2023-07-22T12:28:45;30.50;37.10
24164;DHT22;12319;49.204;8.116;2023-07-22T12:31:10;30.40;37.00
24164;DHT22;12319;49.204;8.116;2023-07-22T12:33:36;30.30;37.00
24164;DHT22;12319;49.204;8.116;2023-07-22T12:36:02;30.50;36.00
24164;DHT22;12319;49.204;8.116;2023-07-22T12:38:27;30.50;36.40
24164;DHT22;12319;49.204;8.116;2023-07-22T12:40:53;30.70;36.20
24164;DHT22;12319;49.204;8.116;2023-07-22T12:43:18;30.90;36.50
24164;DHT22;12319;49.204;8.116;2023-07-22T12:45:44;31.00;35.80
24164;DHT22;12319;49.204;8.116;2023-07-22T12:48:09;31.10;36.50
24164;DHT22;12319;49.204;8.116;2023-07-22T12:50:35;31.00;34.80
24164;DHT22;12319;49.204;8.116;2023-07-22T12:53:01;30.90;36.30
24164;DHT22;12319;49.204;8.116;2023-07-22T12:55:27;30.70;36.20
24164;DHT22;12319;49.204;8.116;2023-07-22T12:57:53;30.80;36.60
24164;DHT22;12319;49.204;8.116;2023-07-22T13:00:19;31.00;36.50
24164;DHT22;12319;49.204;8.116;2023-07-22T13:02:44;31.40;36.30
24164;DHT22;12319;49.204;8.116;2023-07-22T13:05:10;31.60;35.70
24164;DHT22;12319;49.204;8.116;2023-07-22T13:07:36;31.70;33.80
24164;DHT22;12319;49.204;8.116;2023-07-22T13:10:03;31.70;33.70
24164;DHT22;12319;49.204;8.116;2023-07-22T13:12:32;31.70;34.70
24164;DHT22;12319;49.204;8.116;2023-07-22T13:14:57;31.70;35.40
24164;DHT22;12319;49.204;8.116;2023-07-22T13:17:23;31.90;35.30
24164;DHT22;12319;49.204;8.116;2023-07-22T13:19:48;31.80;33.70
24164;DHT22;12319;49.204;8.116;2023-07-22T13:22:14;31.70;34.70
24164;DHT22;12319;49.204;8.116;2023-07-22T13:24:39;31.40;34.90
24164;DHT22;12319;49.204;8.116;2023-07-22T13:27:06;31.10;35.10
24164;DHT22;12319;49.204;8.116;2023-07-22T13:29:32;30.80;35.50
24164;DHT22;12319;49.204;8.116;2023-07-22T13:31:57;30.70;35.90
24164;DHT22;12319;49.204;8.116;2023-07-22T13:34:23;30.60;36.10
24164;DHT22;12319;49.204;8.116;2023-07-22T13:36:48;30.60;36.10
24164;DHT22;12319;49.204;8.116;2023-07-22T13:39:14;30.70;36.20
24164;DHT22;12319;49.204;8.116;2023-07-22T13:41:39;30.80;36.00
24164;DHT22;12319;49.204;8.116;2023-07-22T13:44:05;31.10;36.00
24164;DHT22;12319;49.204;8.116;2023-07-22T13:46:31;31.20;35.50
24164;DHT22;12319;49.204;8.116;2023-07-22T13:48:56;31.40;35.90
24164;DHT22;12319;49.204;8.116;2023-07-22T13:51:22;31.70;35.90
24164;DHT22;12319;49.204;8.116;2023-07-22T13:53:47;32.00;35.30
24164;DHT22;12319;49.204;8.116;2023-07-22T13:56:13;32.20;35.30
24164;DHT22;12319;49.204;8.116;2023-07-22T13:58:38;32.30;35.30
24164;DHT22;12319;49.204;8.116;2023-07-22T14:01:04;32.50;35.20
24164;DHT22;12319;49.204;8.116;2023-07-22T14:03:30;32.30;35.10
24164;DHT22;12319;49.204;8.116;2023-07-22T14:05:55;32.10;35.30
24164;DHT22;12319;49.204;8.116;2023-07-22T14:08:21;31.90;35.10
24164;DHT22;12319;49.204;8.116;2023-07-22T14:10:46;31.60;35.40
24164;DHT22;12319;49.204;8.116;2023-07-22T14:13:12;31.40;35.60
24164;DHT22;12319;49.204;8.116;2023-07-22T14:15:38;31.30;35.60
24164;DHT22;12319;49.204;8.116;2023-07-22T14:18:04;31.40;35.80
24164;DHT22;12319;49.204;8.116;2023-07-22T14:20:29;31.50;35.90
24164;DHT22;12319;49.204;8.116;2023-07-22T14:22:56;31.70;35.80
24164;DHT22;12319;49.204;8.116;2023-07-22T14:25:22;31.80;35.20
24164;DHT22;12319;49.204;8.116;2023-07-22T14:27:48;31.90;34.90
24164;DHT22;12319;49.204;8.116;2023-07-22T14:30:13;32.00;35.10
24164;DHT22;12319;49.204;8.116;2023-07-22T14:32:39;32.00;33.70
24164;DHT22;12319;49.204;8.116;2023-07-22T14:35:04;32.10;35.50
24164;DHT22;12319;49.204;8.116;2023-07-22T14:37:30;31.90;34.80
24164;DHT22;12319;49.204;8.116;2023-07-22T14:39:56;31.90;34.80
24164;DHT22;12319;49.204;8.116;2023-07-22T14:42:21;31.70;35.30
24164;DHT22;12319;49.204;8.116;2023-07-22T14:44:47;31.80;34.70
24164;DHT22;12319;49.204;8.116;2023-07-22T14:47:12;31.90;34.80
24164;DHT22;12319;49.204;8.116;2023-07-22T14:49:38;31.90;34.80
24164;DHT22;12319;49.204;8.116;2023-07-22T14:52:04;31.80;34.70
24164;DHT22;12319;49.204;8.116;2023-07-22T14:54:29;31.80;34.20
24164;DHT22;12319;49.204;8.116;2023-07-22T14:56:55;31.60;34.70
24164;DHT22;12319;49.204;8.116;2023-07-22T14:59:21;31.30;34.10
24164;DHT22;12319;49.204;8.116;2023-07-22T15:01:46;31.00;35.10
24164;DHT22;12319;49.204;8.116;2023-07-22T15:04:12;30.90;35.50
24164;DHT22;12319;49.204;8.116;2023-07-22T15:06:37;30.70;35.60
24164;DHT22;12319;49.204;8.116;2023-07-22T15:09:03;30.60;35.70
24164;DHT22;12319;49.204;8.116;2023-07-22T15:11:35;30.70;36.20
24164;DHT22;12319;49.204;8.116;2023-07-22T15:14:02;30.60;36.10
24164;DHT22;12319;49.204;8.116;2023-07-22T15:16:28;30.60;36.10
24164;DHT22;12319;49.204;8.116;2023-07-22T15:18:53;30.70;36.20
24164;DHT22;12319;49.204;8.116;2023-07-22T15:21:19;30.70;36.20
24164;DHT22;12319;49.204;8.116;2023-07-22T15:23:44;30.70;36.20
24164;DHT22;12319;49.204;8.116;2023-07-22T15:26:10;30.60;36.10
24164;DHT22;12319;49.204;8.116;2023-07-22T15:28:35;30.50;36.10
24164;DHT22;12319;49.204;8.116;2023-07-22T15:31:01;30.30;35.90
24164;DHT22;12319;49.204;8.116;2023-07-22T15:33:27;30.10;35.80
24164;DHT22;12319;49.204;8.116;2023-07-22T15:35:53;30.00;36.20
24164;DHT22;12319;49.204;8.116;2023-07-22T15:38:19;30.00;36.30
24164;DHT22;12319;49.204;8.116;2023-07-22T15:40:45;29.70;36.10
24164;DHT22;12319;49.204;8.116;2023-07-22T15:43:10;29.70;36.30
24164;DHT22;12319;49.204;8.116;2023-07-22T15:45:36;29.70;36.50